Time,TemperatureF,DewpointF,PressureIn,WindDirection,WindDirectionDegrees,WindSpeedMPH,WindSpeedGustMPH,Humidity,HourlyPrecipIn,Conditions,Clouds,dailyrainin,SolarRadiationWatts/m^2,SoftwareType,DateUTC
2013-09-23 00:12:00,61.0,53.0,-100.00,SSE,148,7.0,12.0,74,0.00,,,0.00,1.000000,,2013-09-23 05:12:00,
2013-09-23 00:23:00,61.0,53.0,-100.00,SSE,148,7.0,12.0,74,0.00,,,0.00,1.000000,,2013-09-23 05:23:00,
2013-09-23 00:34:00,61.0,53.0,-100.00,SSE,148,7.0,12.0,74,0.00,,,0.00,1.000000,,2013-09-23 05:34:00,
2013-09-23 00:43:00,61.0,53.0,-100.00,SSE,148,7.0,12.0,74,0.00,,,0.00,1.000000,,2013-09-23 05:43:00,
2013-09-23 01:13:00,61.0,53.0,-100.00,SSE,152,7.0,15.0,74,0.00,,,0.00,1.000000,,2013-09-23 06:13:00,
2013-09-23 01:22:00,61.0,53.0,-100.00,SSE,152,7.0,15.0,74,0.00,,,0.00,1.000000,,2013-09-23 06:22:00,
2013-09-23 01:32:00,61.0,53.0,-100.00,SSE,152,7.0,15.0,74,0.00,,,0.00,1.000000,,2013-09-23 06:32:00,
2013-09-23 01:42:00,61.0,53.0,-100.00,SSE,152,7.0,15.0,74,0.00,,,0.00,1.000000,,2013-09-23 06:42:00,
2013-09-23 02:12:00,60.0,51.0,-100.00,SSE,156,7.0,14.0,73,0.00,,,0.00,1.000000,,2013-09-23 07:12:00,
2013-09-23 02:22:00,60.0,51.0,-100.00,SSE,156,7.0,14.0,73,0.00,,,0.00,1.000000,,2013-09-23 07:22:00,
2013-09-23 02:32:00,60.0,51.0,-100.00,SSE,156,7.0,14.0,73,0.00,,,0.00,1.000000,,2013-09-23 07:32:00,
2013-09-23 02:42:00,60.0,51.0,-100.00,SSE,156,7.0,14.0,73,0.00,,,0.00,1.000000,,2013-09-23 07:42:00,
2013-09-23 03:11:00,59.0,49.0,-100.00,SSE,153,7.0,15.0,70,0.00,,,0.00,1.000000,,2013-09-23 08:11:00,
2013-09-23 03:23:00,59.0,49.0,-100.00,SSE,153,7.0,15.0,70,0.00,,,0.00,1.000000,,2013-09-23 08:23:00,
2013-09-23 03:32:00,59.0,49.0,-100.00,SSE,153,7.0,15.0,70,0.00,,,0.00,1.000000,,2013-09-23 08:32:00,
2013-09-23 03:42:00,59.0,49.0,-100.00,SSE,153,7.0,15.0,70,0.00,,,0.00,1.000000,,2013-09-23 08:42:00,
2013-09-23 04:11:00,59.0,50.0,-100.00,SSE,156,6.0,13.0,71,0.00,,,0.00,1.000000,,2013-09-23 09:11:00,
2013-09-23 04:21:00,59.0,50.0,-100.00,SSE,156,6.0,13.0,71,0.00,,,0.00,1.000000,,2013-09-23 09:21:00,
2013-09-23 04:33:00,59.0,50.0,-100.00,SSE,156,6.0,13.0,71,0.00,,,0.00,1.000000,,2013-09-23 09:33:00,
2013-09-23 04:43:00,59.0,50.0,-100.00,SSE,156,6.0,13.0,71,0.00,,,0.00,1.000000,,2013-09-23 09:43:00,
2013-09-23 05:13:00,57.0,49.0,-100.00,SSE,147,7.0,12.0,74,0.00,,,0.00,1.000000,,2013-09-23 10:13:00,
2013-09-23 05:23:00,57.0,49.0,-100.00,SSE,147,7.0,12.0,74,0.00,,,0.00,1.000000,,2013-09-23 10:23:00,
2013-09-23 05:33:00,57.0,49.0,-100.00,SSE,147,7.0,12.0,74,0.00,,,0.00,1.000000,,2013-09-23 10:33:00,
2013-09-23 05:42:00,57.0,49.0,-100.00,SSE,147,7.0,12.0,74,0.00,,,0.00,1.000000,,2013-09-23 10:42:00,
2013-09-23 06:12:00,57.0,49.0,-100.00,SSE,154,6.0,13.0,75,0.00,,,0.00,1.000000,,2013-09-23 11:12:00,
2013-09-23 06:22:00,57.0,49.0,-100.00,SSE,154,6.0,13.0,75,0.00,,,0.00,1.000000,,2013-09-23 11:22:00,
2013-09-23 06:33:00,57.0,49.0,-100.00,SSE,154,6.0,13.0,75,0.00,,,0.00,1.000000,,2013-09-23 11:33:00,
2013-09-23 06:42:00,57.0,49.0,-100.00,SSE,154,6.0,13.0,75,0.00,,,0.00,1.000000,,2013-09-23 11:42:00,
2013-09-23 07:11:00,56.0,49.0,-100.00,SSE,153,7.0,11.0,77,0.00,,,0.00,1.000000,,2013-09-23 12:11:00,
2013-09-23 07:22:00,56.0,49.0,-100.00,SSE,153,7.0,11.0,77,0.00,,,0.00,1.000000,,2013-09-23 12:22:00,
2013-09-23 07:32:00,56.0,49.0,-100.00,SSE,153,7.0,11.0,77,0.00,,,0.00,1.000000,,2013-09-23 12:32:00,
2013-09-23 07:42:00,56.0,49.0,-100.00,SSE,153,7.0,11.0,77,0.00,,,0.00,1.000000,,2013-09-23 12:42:00,
2013-09-23 08:11:00,57.0,50.0,-100.00,SSE,151,7.0,13.0,78,0.00,,,0.00,39.000000,,2013-09-23 13:11:00,
2013-09-23 08:22:00,57.0,50.0,-100.00,SSE,151,7.0,13.0,78,0.00,,,0.00,39.000000,,2013-09-23 13:22:00,
2013-09-23 08:32:00,57.0,50.0,-100.00,SSE,151,7.0,13.0,78,0.00,,,0.00,39.000000,,2013-09-23 13:32:00,
2013-09-23 08:42:00,57.0,50.0,-100.00,SSE,151,7.0,13.0,78,0.00,,,0.00,39.000000,,2013-09-23 13:42:00,
2013-09-23 09:11:00,60.0,51.0,-100.00,SSE,151,8.0,14.0,71,0.00,,,0.00,181.000000,,2013-09-23 14:11:00,
2013-09-23 09:22:00,60.0,51.0,-100.00,SSE,151,8.0,14.0,71,0.00,,,0.00,181.000000,,2013-09-23 14:22:00,
2013-09-23 09:32:00,60.0,51.0,-100.00,SSE,151,8.0,14.0,71,0.00,,,0.00,181.000000,,2013-09-23 14:32:00,
2013-09-23 09:42:00,60.0,51.0,-100.00,SSE,151,8.0,14.0,71,0.00,,,0.00,181.000000,,2013-09-23 14:42:00,
2013-09-23 10:12:00,62.0,50.0,-100.00,SSE,153,8.0,15.0,65,0.00,,,0.00,326.000000,,2013-09-23 15:12:00,
2013-09-23 10:21:00,62.0,50.0,-100.00,SSE,153,8.0,15.0,65,0.00,,,0.00,326.000000,,2013-09-23 15:21:00,
2013-09-23 10:33:00,62.0,50.0,-100.00,SSE,153,8.0,15.0,65,0.00,,,0.00,326.000000,,2013-09-23 15:33:00,
2013-09-23 10:43:00,62.0,50.0,-100.00,SSE,153,8.0,15.0,65,0.00,,,0.00,326.000000,,2013-09-23 15:43:00,
2013-09-23 11:12:00,67.0,53.0,-100.00,SSE,148,8.0,16.0,60,0.00,,,0.00,489.000000,,2013-09-23 16:12:00,
2013-09-23 11:24:00,67.0,53.0,-100.00,SSE,148,8.0,16.0,60,0.00,,,0.00,489.000000,,2013-09-23 16:24:00,
2013-09-23 11:33:00,67.0,53.0,-100.00,SSE,148,8.0,16.0,60,0.00,,,0.00,489.000000,,2013-09-23 16:33:00,
2013-09-23 11:43:00,67.0,53.0,-100.00,SSE,148,8.0,16.0,60,0.00,,,0.00,489.000000,,2013-09-23 16:43:00,
2013-09-23 12:12:00,69.0,51.0,-100.00,SSE,149,10.0,19.0,53,0.00,,,-99.99,609.000000,,2013-09-23 17:12:00,
2013-09-23 12:24:00,69.0,51.0,-100.00,SSE,149,10.0,19.0,53,0.00,,,-99.99,609.000000,,2013-09-23 17:24:00,
2013-09-23 12:34:00,69.0,51.0,-100.00,SSE,149,10.0,19.0,53,0.00,,,-99.99,609.000000,,2013-09-23 17:34:00,
2013-09-23 12:42:00,69.0,51.0,-100.00,SSE,149,10.0,19.0,53,0.00,,,-99.99,609.000000,,2013-09-23 17:42:00,
2013-09-23 13:12:00,71.0,50.0,-100.00,SSE,159,12.0,20.0,48,0.00,,,0.00,657.000000,,2013-09-23 18:12:00,
2013-09-23 13:22:00,71.0,50.0,-100.00,SSE,159,12.0,20.0,48,0.00,,,0.00,657.000000,,2013-09-23 18:22:00,
2013-09-23 13:33:00,71.0,50.0,-100.00,SSE,159,12.0,20.0,48,0.00,,,0.00,657.000000,,2013-09-23 18:33:00,
2013-09-23 13:42:00,71.0,50.0,-100.00,SSE,159,12.0,20.0,48,0.00,,,0.00,657.000000,,2013-09-23 18:42:00,
2013-09-23 14:12:00,72.0,51.0,-100.00,SSE,161,12.0,22.0,47,0.00,,,0.00,648.000000,,2013-09-23 19:12:00,
2013-09-23 14:22:00,72.0,51.0,-100.00,SSE,161,12.0,22.0,47,0.00,,,0.00,648.000000,,2013-09-23 19:22:00,
2013-09-23 14:33:00,72.0,51.0,-100.00,SSE,161,12.0,22.0,47,0.00,,,0.00,648.000000,,2013-09-23 19:33:00,
2013-09-23 14:42:00,72.0,51.0,-100.00,SSE,161,12.0,22.0,47,0.00,,,0.00,648.000000,,2013-09-23 19:42:00,
2013-09-23 15:12:00,74.0,51.0,-100.00,SSE,150,11.0,21.0,45,0.00,,,0.00,666.000000,,2013-09-23 20:12:00,
2013-09-23 15:22:00,74.0,51.0,-100.00,SSE,150,11.0,21.0,45,0.00,,,0.00,666.000000,,2013-09-23 20:22:00,
2013-09-23 15:32:00,74.0,51.0,-100.00,SSE,150,11.0,21.0,45,0.00,,,0.00,666.000000,,2013-09-23 20:32:00,
2013-09-23 15:42:00,74.0,51.0,-100.00,SSE,150,11.0,21.0,45,0.00,,,0.00,666.000000,,2013-09-23 20:42:00,
2013-09-23 16:11:00,75.0,53.0,-100.00,SSE,151,9.0,21.0,46,0.00,,,0.00,547.000000,,2013-09-23 21:11:00,
2013-09-23 16:23:00,75.0,53.0,-100.00,SSE,151,9.0,21.0,46,0.00,,,0.00,547.000000,,2013-09-23 21:23:00,
2013-09-23 16:34:00,75.0,53.0,-100.00,SSE,151,9.0,21.0,46,0.00,,,0.00,547.000000,,2013-09-23 21:34:00,
2013-09-23 16:44:00,75.0,53.0,-100.00,SSE,151,9.0,21.0,46,0.00,,,0.00,547.000000,,2013-09-23 21:44:00,
2013-09-23 17:13:00,74.0,51.0,-100.00,SE,146,8.0,19.0,44,0.00,,,0.00,396.000000,,2013-09-23 22:13:00,
2013-09-23 17:24:00,74.0,51.0,-100.00,SE,146,8.0,19.0,44,0.00,,,0.00,396.000000,,2013-09-23 22:24:00,
2013-09-23 17:33:00,74.0,51.0,-100.00,SE,146,8.0,19.0,44,0.00,,,0.00,396.000000,,2013-09-23 22:33:00,
2013-09-23 17:43:00,74.0,51.0,-100.00,SE,146,8.0,19.0,44,0.00,,,0.00,396.000000,,2013-09-23 22:43:00,
2013-09-23 18:12:00,73.0,49.0,-100.00,SE,146,9.0,17.0,42,0.00,,,0.00,279.000000,,2013-09-23 23:12:00,
2013-09-23 18:22:00,73.0,49.0,-100.00,SE,146,9.0,17.0,42,0.00,,,0.00,279.000000,,2013-09-23 23:22:00,
2013-09-23 18:34:00,73.0,49.0,-100.00,SE,146,9.0,17.0,42,0.00,,,0.00,279.000000,,2013-09-23 23:34:00,
2013-09-23 18:42:00,73.0,49.0,-100.00,SE,146,9.0,17.0,42,0.00,,,0.00,279.000000,,2013-09-23 23:42:00,
2013-09-23 19:12:00,70.0,49.0,-100.00,SE,133,5.0,14.0,47,0.00,,,0.00,100.000000,,2013-09-24 00:12:00,
2013-09-23 19:22:00,70.0,49.0,-100.00,SE,133,5.0,14.0,47,0.00,,,0.00,100.000000,,2013-09-24 00:22:00,
2013-09-23 19:32:00,70.0,49.0,-100.00,SE,133,5.0,14.0,47,0.00,,,0.00,100.000000,,2013-09-24 00:32:00,
2013-09-23 19:42:00,70.0,49.0,-100.00,SE,133,5.0,14.0,47,0.00,,,0.00,100.000000,,2013-09-24 00:42:00,
2013-09-23 20:12:00,65.0,48.0,-100.00,SE,126,4.0,11.0,54,0.00,,,0.00,5.000000,,2013-09-24 01:12:00,
2013-09-23 20:22:00,65.0,48.0,-100.00,SE,126,4.0,11.0,54,0.00,,,0.00,5.000000,,2013-09-24 01:22:00,
2013-09-23 20:32:00,65.0,48.0,-100.00,SE,126,4.0,11.0,54,0.00,,,0.00,5.000000,,2013-09-24 01:32:00,
2013-09-23 20:43:00,65.0,48.0,-100.00,SE,126,4.0,11.0,54,0.00,,,0.00,5.000000,,2013-09-24 01:43:00,
2013-09-23 21:12:00,62.0,50.0,-100.00,East,88,3.0,7.0,64,0.00,,,-99.99,1.000000,,2013-09-24 02:12:00,
2013-09-23 21:22:00,62.0,50.0,-100.00,East,88,3.0,7.0,64,0.00,,,-99.99,1.000000,,2013-09-24 02:22:00,
2013-09-23 21:32:00,62.0,50.0,-100.00,East,88,3.0,7.0,64,0.00,,,-99.99,1.000000,,2013-09-24 02:32:00,
2013-09-23 21:42:00,62.0,50.0,-100.00,East,88,3.0,7.0,64,0.00,,,-99.99,1.000000,,2013-09-24 02:42:00,
2013-09-23 22:12:00,60.0,51.0,-100.00,East,100,3.0,7.0,72,0.00,,,0.00,1.000000,,2013-09-24 03:12:00,
2013-09-23 22:22:00,60.0,51.0,-100.00,East,100,3.0,7.0,72,0.00,,,0.00,1.000000,,2013-09-24 03:22:00,
2013-09-23 22:35:00,60.0,51.0,-100.00,East,100,3.0,7.0,72,0.00,,,0.00,1.000000,,2013-09-24 03:35:00,
2013-09-23 22:44:00,60.0,51.0,-100.00,East,100,3.0,7.0,72,0.00,,,0.00,1.000000,,2013-09-24 03:44:00,
2013-09-23 23:14:00,58.0,52.0,-100.00,ESE,115,4.0,7.0,80,0.00,,,0.00,1.000000,,2013-09-24 04:14:00,
2013-09-23 23:24:00,58.0,52.0,-100.00,ESE,115,4.0,7.0,80,0.00,,,0.00,1.000000,,2013-09-24 04:24:00,
2013-09-23 23:33:00,58.0,52.0,-100.00,ESE,115,4.0,7.0,80,0.00,,,0.00,1.000000,,2013-09-24 04:33:00,
2013-09-23 23:44:00,58.0,52.0,-100.00,ESE,115,4.0,7.0,80,0.00,,,0.00,1.000000,,2013-09-24 04:44:00,